< < Back
Terminal Aerodrome Forecast


Current Version              Previous Versions:   1  2  3  4  5  6  7  8  9  

Terminal Aerodrome Forecast

822
FTUS44 KBMX 041731
TAFBHM
TAF
KBHM 041731Z 0418/0518 29012G20KT P6SM SCT050
     FM042000 29015G25KT P6SM SCT050
     FM042300 29014G20KT P6SM VCSH BKN050
     FM050200 30010G18KT P6SM FEW050
     FM050500 35005KT P6SM SKC=

Latest METAR

540
SAUS70 KWBC 050100 RRI
MTRBHM
METAR KBHM 050053Z 34010G18KT 5SM RA BR FEW033 BKN049 OVC065 15/13 A2982
RMK AO2 PK WND 35037/0026 WSHFT 0023 RAB26 SLP093 P0006
T01500133


USA.gov is the U.S. government's official web portal to all federal, state and local government web resources and services.